METAR Data
IDs: Format: Raw Decoded Include TAF

Data at: 2020 UTC 18 Apr 2021

LFOT 182000Z AUTO 03004KT 340V080 CAVOK 10/04 Q1022 NOSIG